createdAt,value
2023-05-19T00:00:54.849Z,7.58
2023-05-19T00:01:54.918Z,7.55
2023-05-19T00:02:56.018Z,7.50
2023-05-19T00:03:54.877Z,7.49
2023-05-19T00:04:54.821Z,7.49
2023-05-19T00:05:54.830Z,7.49
2023-05-19T00:06:54.830Z,7.47
2023-05-19T00:07:54.775Z,7.49
2023-05-19T00:08:54.848Z,7.50
2023-05-19T00:09:54.775Z,7.50
2023-05-19T00:10:54.709Z,7.49
2023-05-19T00:11:54.750Z,7.45
2023-05-19T00:12:54.712Z,7.45
2023-05-19T00:13:54.718Z,7.44
2023-05-19T00:14:54.715Z,7.42
2023-05-19T00:15:54.705Z,7.41
2023-05-19T00:16:54.628Z,7.41
2023-05-19T00:17:54.706Z,7.41
2023-05-19T00:18:54.649Z,7.41
2023-05-19T00:19:54.638Z,7.41
2023-05-19T00:20:54.643Z,7.41
2023-05-19T00:21:54.589Z,7.41
2023-05-19T00:22:54.583Z,7.41
2023-05-19T00:23:54.578Z,7.40
2023-05-19T00:24:54.523Z,7.38
2023-05-19T00:25:54.564Z,7.37
2023-05-19T00:26:54.615Z,7.35
2023-05-19T00:27:54.546Z,7.37
2023-05-19T00:28:54.494Z,7.32
2023-05-19T00:29:54.481Z,7.31
2023-05-19T00:30:54.443Z,7.29
2023-05-19T00:31:54.499Z,7.27
2023-05-19T00:32:54.485Z,7.27
2023-05-19T00:33:54.447Z,7.26
2023-05-19T00:34:54.417Z,7.24
2023-05-19T00:35:54.404Z,7.22
2023-05-19T00:36:55.320Z,7.19
2023-05-19T00:37:54.399Z,7.16
2023-05-19T00:38:54.451Z,7.15
2023-05-19T00:39:54.373Z,7.13
2023-05-19T00:40:55.295Z,7.09
2023-05-19T00:41:54.313Z,7.05
2023-05-19T00:42:54.312Z,7.02
2023-05-19T00:43:54.294Z,6.98
2023-05-19T00:44:54.289Z,6.95
2023-05-19T00:45:54.289Z,6.91
2023-05-19T00:46:54.267Z,6.84
2023-05-19T00:47:54.262Z,6.79
2023-05-19T00:48:54.207Z,6.77
2023-05-19T00:49:54.243Z,6.76
2023-05-19T00:50:54.199Z,6.72
2023-05-19T00:51:54.217Z,6.68
2023-05-19T00:52:54.176Z,6.66
2023-05-19T00:53:54.163Z,6.62
2023-05-19T00:54:54.144Z,6.58
2023-05-19T00:55:54.131Z,6.54
2023-05-19T00:56:54.214Z,6.56
2023-05-19T00:57:54.131Z,6.53
2023-05-19T00:58:54.062Z,6.51
2023-05-19T00:59:54.111Z,6.48
2023-05-19T01:00:54.100Z,6.48
2023-05-19T01:01:54.054Z,6.47
2023-05-19T01:02:54.170Z,6.47
2023-05-19T01:03:54.147Z,6.48
2023-05-19T01:04:54.005Z,6.48
2023-05-19T01:05:53.990Z,6.47
2023-05-19T01:06:53.998Z,6.46
2023-05-19T01:07:53.976Z,6.44
2023-05-19T01:08:53.972Z,6.40
2023-05-19T01:09:53.973Z,6.35
2023-05-19T01:10:53.897Z,6.30
2023-05-19T01:11:53.939Z,6.28
2023-05-19T01:12:53.902Z,6.22
2023-05-19T01:13:53.884Z,6.21
2023-05-19T01:14:53.910Z,6.22
2023-05-19T01:15:53.867Z,6.16
2023-05-19T01:16:53.904Z,6.10
2023-05-19T01:17:53.903Z,6.07
2023-05-19T01:18:53.880Z,6.03
2023-05-19T01:19:53.809Z,5.96
2023-05-19T01:20:53.861Z,6.00
2023-05-19T01:21:53.761Z,5.93
2023-05-19T01:22:53.793Z,5.93
2023-05-19T01:23:53.721Z,5.93
2023-05-19T01:24:53.737Z,5.92
2023-05-19T01:25:53.727Z,5.89
2023-05-19T01:26:53.771Z,5.88
2023-05-19T01:27:53.701Z,5.86
2023-05-19T01:28:53.712Z,5.86
2023-05-19T01:29:53.659Z,5.83
2023-05-19T01:30:53.689Z,5.81
2023-05-19T01:31:53.696Z,5.78
2023-05-19T01:32:53.803Z,5.78
2023-05-19T01:33:53.619Z,5.82
2023-05-19T01:34:53.634Z,5.86
2023-05-19T01:35:53.582Z,5.88
2023-05-19T01:36:53.575Z,5.89
2023-05-19T01:37:53.573Z,5.91
2023-05-19T01:38:53.584Z,5.89
2023-05-19T01:39:53.552Z,5.88
2023-05-19T01:40:53.557Z,5.91
2023-05-19T01:41:53.492Z,5.91
2023-05-19T01:42:55.035Z,5.86
2023-05-19T01:43:53.468Z,5.85
2023-05-19T01:44:53.529Z,5.83
2023-05-19T01:45:53.485Z,5.82
2023-05-19T01:46:53.454Z,5.81
2023-05-19T01:47:53.476Z,5.81
2023-05-19T01:48:53.485Z,5.81
2023-05-19T01:49:53.381Z,5.82
2023-05-19T01:50:53.443Z,5.81
2023-05-19T01:51:53.396Z,5.85
2023-05-19T01:52:53.417Z,5.88
2023-05-19T01:53:53.344Z,5.89
2023-05-19T01:54:53.385Z,5.93
2023-05-19T01:55:53.324Z,5.96
2023-05-19T01:56:53.446Z,5.96
2023-05-19T01:57:53.314Z,6.00
2023-05-19T01:58:53.304Z,6.03
2023-05-19T01:59:53.288Z,6.01
2023-05-19T02:00:53.347Z,6.00
2023-05-19T02:01:53.257Z,5.98
2023-05-19T02:02:53.365Z,5.93
2023-05-19T02:03:53.234Z,5.92
2023-05-19T02:04:53.251Z,5.91
2023-05-19T02:05:53.214Z,5.88
2023-05-19T02:06:53.221Z,5.86
2023-05-19T02:07:53.162Z,5.85
2023-05-19T02:08:53.205Z,5.78
2023-05-19T02:09:53.166Z,5.81
2023-05-19T02:10:53.143Z,5.78
2023-05-19T02:11:53.128Z,5.78
2023-05-19T02:12:53.137Z,5.78
2023-05-19T02:13:53.073Z,5.81
2023-05-19T02:14:53.182Z,5.78
2023-05-19T02:15:53.092Z,5.81
2023-05-19T02:16:53.068Z,5.82
2023-05-19T02:17:53.066Z,5.82
2023-05-19T02:18:53.053Z,5.81
2023-05-19T02:19:53.028Z,5.78
2023-05-19T02:20:53.071Z,5.74
2023-05-19T02:21:53.004Z,5.68
2023-05-19T02:22:53.017Z,5.64
2023-05-19T02:23:52.945Z,5.60
2023-05-19T02:24:52.962Z,5.56
2023-05-19T02:25:52.963Z,5.55
2023-05-19T02:26:52.965Z,5.56
2023-05-19T02:27:59.916Z,5.56
2023-05-19T02:28:52.924Z,5.57
2023-05-19T02:29:52.865Z,5.57
2023-05-19T02:30:52.876Z,5.57
2023-05-19T02:31:52.924Z,5.57
2023-05-19T02:32:52.891Z,5.56
2023-05-19T02:33:52.845Z,5.53
2023-05-19T02:34:52.853Z,5.50
2023-05-19T02:35:52.790Z,5.50
2023-05-19T02:36:53.487Z,5.50
2023-05-19T02:37:52.785Z,5.50
2023-05-19T02:38:52.834Z,5.52
2023-05-19T02:39:52.727Z,5.55
2023-05-19T02:40:52.775Z,5.57
2023-05-19T02:41:53.676Z,5.60
2023-05-19T02:42:52.723Z,5.60
2023-05-19T02:43:52.709Z,5.63
2023-05-19T02:44:52.726Z,5.60
2023-05-19T02:45:52.795Z,5.64
2023-05-19T02:46:52.771Z,5.63
2023-05-19T02:47:52.713Z,5.64
2023-05-19T02:48:52.671Z,5.67
2023-05-19T02:49:52.612Z,5.67
2023-05-19T02:50:52.646Z,5.64
2023-05-19T02:51:53.336Z,5.64
2023-05-19T02:52:52.618Z,5.64
2023-05-19T02:53:52.568Z,5.60
2023-05-19T02:54:52.566Z,5.60
2023-05-19T02:55:52.549Z,5.57
2023-05-19T02:56:52.588Z,5.57
2023-05-19T02:57:52.531Z,5.56
2023-05-19T02:58:52.547Z,5.56
2023-05-19T02:59:52.479Z,5.56
2023-05-19T03:00:52.808Z,5.53
2023-05-19T03:01:53.434Z,5.55
2023-05-19T03:02:52.532Z,5.53
2023-05-19T03:03:52.529Z,5.53
2023-05-19T03:04:52.439Z,5.53
2023-05-19T03:05:53.123Z,5.53
2023-05-19T03:06:52.443Z,5.55
2023-05-19T03:07:52.375Z,5.53
2023-05-19T03:08:52.415Z,5.53
2023-05-19T03:09:52.369Z,5.49
2023-05-19T03:10:52.377Z,5.45
2023-05-19T03:11:52.329Z,5.37
2023-05-19T03:12:52.354Z,5.34
2023-05-19T03:13:52.293Z,5.30
2023-05-19T03:14:52.332Z,5.25
2023-05-19T03:15:52.317Z,5.20
2023-05-19T03:16:52.461Z,5.13
2023-05-19T03:17:53.094Z,5.09
2023-05-19T03:18:52.299Z,5.07
2023-05-19T03:19:52.216Z,5.09
2023-05-19T03:20:52.414Z,5.14
2023-05-19T03:21:52.186Z,5.16
2023-05-19T03:22:52.198Z,5.16
2023-05-19T03:23:52.185Z,5.16
2023-05-19T03:24:52.183Z,5.19
2023-05-19T03:25:52.170Z,5.16
2023-05-19T03:26:52.308Z,5.17
2023-05-19T03:27:52.113Z,5.16
2023-05-19T03:28:52.158Z,5.14
2023-05-19T03:29:52.092Z,5.12
2023-05-19T03:30:52.106Z,5.09
2023-05-19T03:31:52.152Z,5.07
2023-05-19T03:32:52.265Z,5.07
2023-05-19T03:33:52.064Z,5.09
2023-05-19T03:34:52.076Z,5.09
2023-05-19T03:35:52.012Z,5.07
2023-05-19T03:36:52.057Z,5.02
2023-05-19T03:37:51.993Z,4.98
2023-05-19T03:38:52.033Z,4.96
2023-05-19T03:39:51.985Z,4.92
2023-05-19T03:40:52.693Z,4.92
2023-05-19T03:41:51.933Z,4.91
2023-05-19T03:42:51.947Z,4.89
2023-05-19T03:43:51.931Z,4.89
2023-05-19T03:44:51.958Z,4.88
2023-05-19T03:45:51.926Z,4.84
2023-05-19T03:46:51.923Z,4.84
2023-05-19T03:47:51.871Z,4.83
2023-05-19T03:48:51.897Z,4.83
2023-05-19T03:49:51.825Z,4.80
2023-05-19T03:50:51.882Z,4.80
2023-05-19T03:51:51.860Z,4.80
2023-05-19T03:52:51.886Z,4.80
2023-05-19T03:53:51.818Z,4.77
2023-05-19T03:54:51.827Z,4.79
2023-05-19T03:55:51.754Z,4.79
2023-05-19T03:56:51.867Z,4.79
2023-05-19T03:57:52.724Z,4.79
2023-05-19T03:58:51.767Z,4.79
2023-05-19T03:59:51.702Z,4.77
2023-05-19T04:00:51.757Z,4.79
2023-05-19T04:01:51.747Z,4.77
2023-05-19T04:02:51.804Z,4.80
2023-05-19T04:03:51.677Z,4.83
2023-05-19T04:04:51.695Z,4.86
2023-05-19T04:05:51.645Z,4.89
2023-05-19T04:06:51.656Z,4.92
2023-05-19T04:07:51.600Z,4.94
2023-05-19T04:08:51.661Z,4.99
2023-05-19T04:09:51.592Z,5.04
2023-05-19T04:10:51.579Z,5.07
2023-05-19T04:11:51.568Z,5.12
2023-05-19T04:12:51.592Z,5.16
2023-05-19T04:13:51.517Z,5.19
2023-05-19T04:14:51.642Z,5.25
2023-05-19T04:15:51.606Z,5.23
2023-05-19T04:16:51.503Z,5.23
2023-05-19T04:17:51.542Z,5.22
2023-05-19T04:18:51.568Z,5.19
2023-05-19T04:19:51.439Z,5.14
2023-05-19T04:20:51.595Z,5.16
2023-05-19T04:21:51.410Z,5.13
2023-05-19T04:22:51.426Z,5.13
2023-05-19T04:23:51.422Z,5.09
2023-05-19T04:24:51.399Z,5.02
2023-05-19T04:25:51.384Z,4.99
2023-05-19T04:26:51.425Z,4.95
2023-05-19T04:27:51.330Z,4.96
2023-05-19T04:28:51.365Z,4.94
2023-05-19T04:29:51.305Z,4.95
2023-05-19T04:30:51.379Z,4.96
2023-05-19T04:31:51.320Z,5.02
2023-05-19T04:32:51.352Z,5.07
2023-05-19T04:33:51.280Z,5.12
2023-05-19T04:34:51.328Z,5.19
2023-05-19T04:35:51.235Z,5.23
2023-05-19T04:36:53.345Z,5.28
2023-05-19T04:37:51.209Z,5.32
2023-05-19T04:38:51.256Z,5.32
2023-05-19T04:39:51.197Z,5.37
2023-05-19T04:40:51.183Z,5.38
2023-05-19T04:41:51.186Z,5.41
2023-05-19T04:42:51.190Z,5.43
2023-05-19T04:43:51.125Z,5.46
2023-05-19T04:44:51.168Z,5.50
2023-05-19T04:45:51.117Z,5.53
2023-05-19T04:46:51.171Z,5.59
2023-05-19T04:47:51.118Z,5.66
2023-05-19T04:48:51.110Z,5.70
2023-05-19T04:49:51.045Z,5.74
2023-05-19T04:50:51.087Z,5.78
2023-05-19T04:51:52.240Z,5.85
2023-05-19T04:52:51.022Z,5.93
2023-05-19T04:53:51.014Z,6.01
2023-05-19T04:54:51.031Z,6.09
2023-05-19T04:55:50.968Z,6.18
2023-05-19T04:56:51.112Z,6.29
2023-05-19T04:57:50.945Z,6.36
2023-05-19T04:58:50.955Z,6.44
2023-05-19T04:59:50.943Z,6.51
2023-05-19T05:02:02.043Z,6.66
2023-05-19T05:03:02.924Z,6.71
2023-05-19T05:04:01.926Z,6.77
2023-05-19T05:05:01.892Z,6.81
2023-05-19T05:06:01.901Z,6.86
2023-05-19T05:07:01.840Z,6.94
2023-05-19T05:08:01.902Z,7.02
2023-05-19T05:09:01.816Z,7.07
2023-05-19T05:10:01.861Z,7.16
2023-05-19T05:11:01.826Z,7.24
2023-05-19T05:12:01.792Z,7.35
2023-05-19T05:13:01.790Z,7.41
2023-05-19T05:14:01.798Z,7.47
2023-05-19T05:15:01.746Z,7.55
2023-05-19T05:16:02.466Z,7.60
2023-05-19T05:17:01.697Z,7.67
2023-05-19T05:18:01.803Z,7.77
2023-05-19T05:19:01.740Z,7.85
2023-05-19T05:20:01.708Z,7.93
2023-05-19T05:21:01.673Z,8.00
2023-05-19T05:22:01.658Z,8.07
2023-05-19T05:23:01.645Z,8.12
2023-05-19T05:24:01.668Z,8.20
2023-05-19T05:25:01.592Z,8.28
2023-05-19T05:26:01.668Z,8.35
2023-05-19T05:27:01.592Z,8.42
2023-05-19T05:28:01.580Z,8.48
2023-05-19T05:29:01.540Z,8.55
2023-05-19T05:30:01.569Z,8.65
2023-05-19T05:31:02.503Z,8.72
2023-05-19T05:32:01.700Z,8.79
2023-05-19T05:33:01.623Z,8.87
2023-05-19T05:34:01.498Z,8.94
2023-05-19T05:35:01.458Z,9.02
2023-05-19T05:36:01.498Z,9.12
2023-05-19T05:37:01.430Z,9.18
2023-05-19T05:38:01.503Z,9.27
2023-05-19T05:39:01.425Z,9.32
2023-05-19T05:40:01.413Z,9.39
2023-05-19T05:41:01.400Z,9.45
2023-05-19T05:42:01.386Z,9.53
2023-05-19T05:43:01.350Z,9.63
2023-05-19T05:44:01.569Z,9.70
2023-05-19T05:45:01.394Z,9.81
2023-05-19T05:46:01.384Z,9.89
2023-05-19T05:47:01.302Z,10.01
2023-05-19T05:48:01.486Z,10.15
2023-05-19T05:49:01.284Z,10.19
2023-05-19T05:50:01.369Z,10.26
2023-05-19T05:51:01.270Z,10.32
2023-05-19T05:52:06.396Z,10.36
2023-05-19T05:53:02.244Z,10.39
2023-05-19T05:54:01.224Z,10.51
2023-05-19T05:55:01.203Z,10.52
2023-05-19T05:56:01.282Z,10.55
2023-05-19T05:57:01.180Z,10.60
2023-05-19T05:58:01.206Z,10.71
2023-05-19T05:59:01.178Z,10.78
2023-05-19T06:00:01.157Z,10.81
2023-05-19T06:01:01.121Z,10.95
2023-05-19T06:02:01.231Z,11.01
2023-05-19T06:03:01.250Z,11.11
2023-05-19T06:04:01.102Z,11.19
2023-05-19T06:05:01.160Z,11.29
2023-05-19T06:06:01.226Z,11.35
2023-05-19T06:07:01.156Z,11.47
2023-05-19T06:08:01.135Z,11.57
2023-05-19T06:09:01.014Z,11.64
2023-05-19T06:10:01.056Z,11.72
2023-05-19T06:11:01.007Z,11.82
2023-05-19T06:12:01.042Z,11.85
2023-05-19T06:13:01.006Z,11.93
2023-05-19T06:14:01.092Z,12.05
2023-05-19T06:15:00.943Z,12.08
2023-05-19T06:16:02.145Z,12.15
2023-05-19T06:17:00.906Z,12.27
2023-05-19T06:18:01.010Z,12.34
2023-05-19T06:19:00.925Z,12.44
2023-05-19T06:20:00.914Z,12.57
2023-05-19T06:21:00.884Z,12.66
2023-05-19T06:22:00.857Z,12.77
2023-05-19T06:23:00.817Z,12.81
2023-05-19T06:24:00.861Z,12.92
2023-05-19T06:25:00.823Z,12.93
2023-05-19T06:26:00.861Z,12.96
2023-05-19T06:27:00.798Z,13.00
2023-05-19T06:28:00.786Z,13.03
2023-05-19T06:29:00.782Z,13.14
2023-05-19T06:30:00.753Z,13.24
2023-05-19T06:31:00.762Z,13.33
2023-05-19T06:32:00.786Z,13.47
2023-05-19T06:33:00.769Z,13.56
2023-05-19T06:34:00.704Z,13.62
2023-05-19T06:35:00.662Z,13.63
2023-05-19T06:36:00.711Z,13.70
2023-05-19T06:37:00.637Z,13.65
2023-05-19T06:38:00.714Z,13.62
2023-05-19T06:39:02.587Z,13.58
2023-05-19T06:40:00.623Z,13.67
2023-05-19T06:41:00.617Z,13.79
2023-05-19T06:42:00.592Z,13.87
2023-05-19T06:43:00.556Z,13.95
2023-05-19T06:44:00.625Z,13.99
2023-05-19T06:45:00.582Z,14.04
2023-05-19T06:46:00.575Z,14.14
2023-05-19T06:47:00.566Z,14.24
2023-05-19T06:48:00.595Z,14.35
2023-05-19T06:49:00.547Z,14.39
2023-05-19T06:50:01.134Z,14.47
2023-05-19T06:51:00.480Z,14.53
2023-05-19T06:52:00.461Z,14.62
2023-05-19T06:53:00.451Z,14.67
2023-05-19T06:54:00.433Z,14.72
2023-05-19T06:55:00.396Z,14.78
2023-05-19T06:56:00.606Z,14.87
2023-05-19T06:57:00.362Z,14.69
2023-05-19T06:58:00.419Z,14.80
2023-05-19T06:59:00.374Z,14.80
2023-05-19T07:00:00.349Z,14.78
2023-05-19T07:01:00.354Z,14.60
2023-05-19T07:02:00.480Z,14.69
2023-05-19T07:03:00.450Z,14.80
2023-05-19T07:04:00.474Z,14.91
2023-05-19T07:05:00.285Z,15.02
2023-05-19T07:06:00.293Z,15.19
2023-05-19T07:07:00.237Z,15.28
2023-05-19T07:08:00.304Z,15.38
2023-05-19T07:09:00.210Z,15.38
2023-05-19T07:10:00.256Z,15.51
2023-05-19T07:11:00.222Z,15.63
2023-05-19T07:12:00.193Z,15.67
2023-05-19T07:13:00.200Z,15.70
2023-05-19T07:14:00.203Z,15.78
2023-05-19T07:15:00.149Z,15.93
2023-05-19T07:16:00.297Z,16.09
2023-05-19T07:17:00.104Z,16.16
2023-05-19T07:18:00.274Z,16.18
2023-05-19T07:19:00.239Z,16.16
2023-05-19T07:20:00.242Z,16.06
2023-05-19T07:21:00.100Z,15.88
2023-05-19T07:22:00.149Z,15.92
2023-05-19T07:23:00.080Z,15.88
2023-05-19T07:24:00.057Z,15.72
2023-05-19T07:25:00.052Z,15.74
2023-05-19T07:26:00.055Z,15.85
2023-05-19T07:27:00.002Z,16.00
2023-05-19T07:27:59.989Z,16.11
2023-05-19T07:28:59.970Z,16.27
2023-05-19T07:29:59.957Z,16.33
2023-05-19T07:30:59.980Z,16.40
2023-05-19T07:32:00.045Z,16.45
2023-05-19T07:32:59.986Z,16.67
2023-05-19T07:33:59.890Z,16.78
2023-05-19T07:34:59.899Z,17.03
2023-05-19T07:35:59.882Z,17.28
2023-05-19T07:36:59.929Z,17.47
2023-05-19T07:37:59.863Z,17.54
2023-05-19T07:38:59.865Z,17.48
2023-05-19T07:39:59.837Z,17.41
2023-05-19T07:40:59.847Z,17.00
2023-05-19T07:41:59.810Z,16.75
2023-05-19T07:42:59.800Z,16.85
2023-05-19T07:43:59.790Z,16.95
2023-05-19T07:44:59.806Z,16.90
2023-05-19T07:45:59.738Z,16.95
2023-05-19T07:46:59.741Z,17.03
2023-05-19T07:47:59.745Z,17.06
2023-05-19T07:48:59.701Z,17.10
2023-05-19T07:49:59.741Z,17.17
2023-05-19T07:50:59.704Z,17.28
2023-05-19T07:51:59.633Z,17.26
2023-05-19T07:52:59.647Z,17.36
2023-05-19T07:53:59.626Z,17.47
2023-05-19T07:54:59.658Z,17.63
2023-05-19T07:55:59.605Z,17.81
2023-05-19T07:56:59.632Z,17.85
2023-05-19T07:57:59.549Z,17.63
2023-05-19T07:58:59.562Z,17.82
2023-05-19T07:59:59.552Z,17.99
2023-05-19T08:00:59.573Z,18.12
2023-05-19T08:01:59.598Z,17.92
2023-05-19T08:02:59.596Z,18.02
2023-05-19T08:03:59.538Z,18.10
2023-05-19T08:04:59.518Z,18.39
2023-05-19T08:05:59.441Z,18.61
2023-05-19T08:06:59.452Z,18.90
2023-05-19T08:07:59.469Z,18.98
2023-05-19T08:08:59.446Z,19.02
2023-05-19T08:09:59.393Z,19.25
2023-05-19T08:10:59.398Z,19.35
2023-05-19T08:11:59.388Z,19.53
2023-05-19T08:12:59.376Z,19.84
2023-05-19T08:13:59.396Z,19.83
2023-05-19T08:15:01.366Z,19.84
2023-05-19T08:15:59.376Z,19.78
2023-05-19T08:16:59.351Z,19.60
2023-05-19T08:17:59.336Z,19.38
2023-05-19T08:18:59.345Z,19.42
2023-05-19T08:19:59.324Z,19.31
2023-05-19T08:20:59.276Z,19.38
2023-05-19T08:21:59.261Z,19.48
2023-05-19T08:22:59.309Z,19.36
2023-05-19T08:23:59.207Z,19.50
2023-05-19T08:24:59.270Z,19.46
2023-05-19T08:25:59.236Z,19.24
2023-05-19T08:26:59.201Z,19.38
2023-05-19T08:27:59.200Z,19.55
2023-05-19T08:28:59.203Z,19.83
2023-05-19T08:29:59.168Z,20.12
2023-05-19T08:30:59.180Z,20.49
2023-05-19T08:31:59.139Z,20.46
2023-05-19T08:32:59.175Z,20.53
2023-05-19T08:33:59.078Z,20.51
2023-05-19T08:34:59.114Z,20.47
2023-05-19T08:36:00.070Z,20.61
2023-05-19T08:36:59.064Z,20.80
2023-05-19T08:38:00.158Z,21.04
2023-05-19T08:38:59.077Z,21.14
2023-05-19T08:39:59.006Z,21.19
2023-05-19T08:40:59.005Z,21.35
2023-05-19T08:41:59.001Z,21.09
2023-05-19T08:42:59.009Z,20.77
2023-05-19T08:43:58.976Z,20.74
2023-05-19T08:44:58.978Z,20.80
2023-05-19T08:45:58.910Z,20.65
2023-05-19T08:46:58.958Z,20.90
2023-05-19T08:47:58.935Z,21.27
2023-05-19T08:48:58.900Z,21.57
2023-05-19T08:49:58.991Z,21.88
2023-05-19T08:50:58.919Z,22.27
2023-05-19T08:51:58.834Z,22.17
2023-05-19T08:52:58.887Z,21.97
2023-05-19T08:53:58.809Z,21.78
2023-05-19T08:54:58.816Z,21.57
2023-05-19T08:55:58.858Z,21.66
2023-05-19T08:56:58.809Z,21.72
2023-05-19T08:57:58.778Z,21.30
2023-05-19T08:58:58.775Z,21.24
2023-05-19T08:59:58.752Z,21.41
2023-05-19T09:00:58.781Z,21.41
2023-05-19T09:01:58.836Z,21.50
2023-05-19T09:03:06.025Z,21.57
2023-05-19T09:03:59.722Z,21.98
2023-05-19T09:04:58.735Z,21.85
2023-05-19T09:05:58.669Z,21.82
2023-05-19T09:06:58.660Z,21.94
2023-05-19T09:07:58.684Z,22.25
2023-05-19T09:08:58.623Z,22.37
2023-05-19T09:09:58.614Z,22.37
2023-05-19T09:10:58.628Z,22.25
2023-05-19T09:11:58.559Z,22.32
2023-05-19T09:12:58.573Z,22.49
2023-05-19T09:13:58.667Z,22.74
2023-05-19T09:14:58.579Z,22.75
2023-05-19T09:15:58.525Z,22.96
2023-05-19T09:16:58.598Z,22.07
2023-05-19T09:17:58.508Z,22.14
2023-05-19T09:18:58.575Z,22.47
2023-05-19T09:19:58.514Z,22.83
2023-05-19T09:20:58.461Z,22.56
2023-05-19T09:21:58.453Z,22.13
2023-05-19T09:22:58.462Z,22.20
2023-05-19T09:23:58.403Z,22.47
2023-05-19T09:24:58.438Z,22.68
2023-05-19T09:25:58.464Z,23.05
2023-05-19T09:27:00.059Z,23.22
2023-05-19T09:27:59.339Z,23.43
2023-05-19T09:28:58.363Z,23.77
2023-05-19T09:29:58.346Z,24.04
2023-05-19T09:30:58.355Z,23.95
2023-05-19T09:31:58.452Z,24.12
2023-05-19T09:32:58.401Z,24.29
2023-05-19T09:33:58.270Z,24.26
2023-05-19T09:34:58.280Z,23.86
2023-05-19T09:35:58.271Z,24.17
2023-05-19T09:36:58.253Z,24.57
2023-05-19T09:37:58.358Z,24.95
2023-05-19T09:38:58.249Z,24.69
2023-05-19T09:39:58.187Z,24.87
2023-05-19T09:40:58.400Z,24.88
2023-05-19T09:41:58.162Z,24.83
2023-05-19T09:42:58.168Z,24.49
2023-05-19T09:43:58.190Z,24.10
2023-05-19T09:44:58.171Z,23.22
2023-05-19T09:45:58.157Z,22.68
2023-05-19T09:46:58.241Z,22.41
2023-05-19T09:47:58.139Z,22.20
2023-05-19T09:48:58.097Z,21.99
2023-05-19T09:49:58.116Z,21.51
2023-05-19T09:50:58.218Z,21.76
2023-05-19T09:51:58.037Z,22.59
2023-05-19T09:52:58.068Z,22.97
2023-05-19T09:53:58.001Z,23.38
2023-05-19T09:54:58.008Z,23.80
2023-05-19T09:55:58.030Z,23.58
2023-05-19T09:56:57.984Z,23.47
2023-05-19T09:57:57.975Z,23.46
2023-05-19T09:58:57.984Z,23.02
2023-05-19T09:59:57.922Z,22.49
2023-05-19T10:00:57.954Z,22.89
2023-05-19T10:01:57.987Z,23.15
2023-05-19T10:02:57.969Z,23.55
2023-05-19T10:03:57.865Z,23.85
2023-05-19T10:04:57.954Z,24.17
2023-05-19T10:05:57.844Z,24.42
2023-05-19T10:06:57.853Z,24.82
2023-05-19T10:07:57.860Z,25.09
2023-05-19T10:08:57.823Z,25.09
2023-05-19T10:09:58.660Z,24.91
2023-05-19T10:10:57.847Z,24.83
2023-05-19T10:11:57.760Z,24.90
2023-05-19T10:12:57.801Z,24.90
2023-05-19T10:13:57.788Z,24.75
2023-05-19T10:14:57.789Z,24.92
2023-05-19T10:15:59.619Z,25.44
2023-05-19T10:16:57.839Z,25.94
2023-05-19T10:17:57.742Z,26.18
2023-05-19T10:18:57.728Z,26.15
2023-05-19T10:19:57.710Z,25.54
2023-05-19T10:20:57.680Z,24.77
2023-05-19T10:21:57.673Z,24.02
2023-05-19T10:22:57.668Z,23.62
2023-05-19T10:23:57.606Z,23.43
2023-05-19T10:24:57.638Z,23.76
2023-05-19T10:25:57.743Z,24.26
2023-05-19T10:26:57.598Z,23.83
2023-05-19T10:27:57.582Z,23.31
2023-05-19T10:28:57.556Z,23.27
2023-05-19T10:29:57.553Z,22.67
2023-05-19T10:30:57.561Z,23.04
2023-05-19T10:31:57.563Z,23.68
2023-05-19T10:32:57.642Z,24.26
2023-05-19T10:33:57.466Z,24.92
2023-05-19T10:34:57.486Z,25.38
2023-05-19T10:35:57.485Z,25.62
2023-05-19T10:36:57.448Z,25.56
2023-05-19T10:37:57.481Z,25.50
2023-05-19T10:38:57.456Z,25.49
2023-05-19T10:39:57.385Z,25.90
2023-05-19T10:40:57.424Z,26.20
2023-05-19T10:41:58.325Z,25.44
2023-05-19T10:42:57.368Z,25.47
2023-05-19T10:43:57.384Z,25.64
2023-05-19T10:44:57.347Z,25.65
2023-05-19T10:45:58.030Z,25.38
2023-05-19T10:46:57.473Z,25.35
2023-05-19T10:47:57.335Z,25.30
2023-05-19T10:48:58.257Z,25.38
2023-05-19T10:49:57.338Z,25.44
2023-05-19T10:50:57.292Z,25.67
2023-05-19T10:51:57.237Z,26.22
2023-05-19T10:52:57.271Z,26.61
2023-05-19T10:53:57.203Z,26.20
2023-05-19T10:54:57.213Z,26.05
2023-05-19T10:55:57.238Z,24.64
2023-05-19T10:56:57.191Z,23.46
2023-05-19T10:57:57.196Z,22.99
2023-05-19T10:58:57.208Z,22.38
2023-05-19T10:59:57.154Z,22.59
2023-05-19T11:00:57.167Z,23.02
2023-05-19T11:01:57.181Z,23.79
2023-05-19T11:02:57.132Z,24.29
2023-05-19T11:03:57.324Z,24.95
2023-05-19T11:04:57.120Z,25.35
2023-05-19T11:05:57.038Z,25.84
2023-05-19T11:06:57.120Z,25.69
2023-05-19T11:07:57.172Z,25.79
2023-05-19T11:08:57.032Z,25.15
2023-05-19T11:09:57.020Z,24.39
2023-05-19T11:10:57.029Z,24.14
2023-05-19T11:11:56.967Z,24.75
2023-05-19T11:13:56.968Z,24.41
2023-05-19T11:14:56.953Z,24.97
2023-05-19T11:15:56.940Z,25.28
2023-05-19T11:16:57.009Z,25.10
2023-05-19T11:17:57.051Z,24.07
2023-05-19T11:18:57.005Z,23.35
2023-05-19T11:19:56.914Z,22.87
2023-05-19T11:20:56.890Z,23.34
2023-05-19T11:21:56.871Z,23.57
2023-05-19T11:22:56.873Z,23.92
2023-05-19T11:23:56.900Z,24.38
2023-05-19T11:24:56.843Z,24.83
2023-05-19T11:25:56.813Z,25.53
2023-05-19T11:26:56.806Z,25.94
2023-05-19T11:27:56.781Z,26.39
2023-05-19T11:28:56.772Z,26.69
2023-05-19T11:29:56.752Z,26.46
2023-05-19T11:30:56.772Z,26.37
2023-05-19T11:31:56.753Z,26.09
2023-05-19T11:32:56.808Z,25.71
2023-05-19T11:33:56.694Z,25.99
2023-05-19T11:34:57.368Z,26.06
2023-05-19T11:35:56.678Z,26.37
2023-05-19T11:36:56.638Z,26.59
2023-05-19T11:37:56.708Z,27.06
2023-05-19T11:38:56.652Z,26.72
2023-05-19T11:39:57.333Z,25.89
2023-05-19T11:40:56.622Z,24.98
2023-05-19T11:41:56.613Z,23.97
2023-05-19T11:42:56.554Z,23.32
2023-05-19T11:43:56.652Z,22.84
2023-05-19T11:44:56.545Z,22.38
2023-05-19T11:45:56.651Z,22.65
2023-05-19T11:46:56.578Z,23.42
2023-05-19T11:48:02.421Z,24.35
2023-05-19T11:48:57.552Z,25.13
2023-05-19T11:49:56.504Z,25.53
2023-05-19T11:50:56.463Z,24.80
2023-05-19T11:51:56.496Z,24.08
2023-05-19T11:52:56.470Z,23.46
2023-05-19T11:53:56.449Z,22.80
2023-05-19T11:54:56.449Z,22.38
2023-05-19T11:55:56.445Z,22.02
2023-05-19T11:56:56.388Z,21.78
2023-05-19T11:58:57.396Z,21.42
2023-05-19T11:59:56.384Z,21.23
2023-05-19T12:00:56.386Z,21.16
2023-05-19T12:01:56.354Z,21.01
2023-05-19T12:02:56.400Z,20.77
2023-05-19T12:03:56.571Z,20.99
2023-05-19T12:04:56.313Z,22.12
2023-05-19T12:05:56.351Z,23.11
2023-05-19T12:06:56.381Z,24.10
2023-05-19T12:07:56.264Z,24.87
2023-05-19T12:08:56.224Z,25.67
2023-05-19T12:09:56.267Z,26.31
2023-05-19T12:10:56.235Z,26.28
2023-05-19T12:11:56.217Z,25.94
2023-05-19T12:12:56.234Z,25.90
2023-05-19T12:13:56.187Z,25.83
2023-05-19T12:14:56.149Z,25.75
2023-05-19T12:15:56.236Z,25.43
2023-05-19T12:16:56.210Z,24.50
2023-05-19T12:17:56.241Z,23.50
2023-05-19T12:18:56.290Z,22.77
2023-05-19T12:19:56.118Z,22.44
2023-05-19T12:20:56.099Z,22.22
2023-05-19T12:21:56.084Z,21.97
2023-05-19T12:22:56.040Z,21.88
2023-05-19T12:23:56.094Z,21.63
2023-05-19T12:24:56.112Z,21.56
2023-05-19T12:25:56.045Z,21.48
2023-05-19T12:26:56.000Z,21.48
2023-05-19T12:27:56.882Z,21.79
2023-05-19T12:28:55.968Z,23.12
2023-05-19T12:29:56.000Z,24.27
2023-05-19T12:30:55.984Z,25.00
2023-05-19T12:31:56.020Z,25.32
2023-05-19T12:32:55.982Z,24.98
2023-05-19T12:33:55.933Z,24.10
2023-05-19T12:34:55.894Z,23.24
2023-05-19T12:35:55.924Z,22.46
2023-05-19T12:36:55.893Z,22.09
2023-05-19T12:37:55.896Z,21.88
2023-05-19T12:38:55.862Z,21.92
2023-05-19T12:39:55.860Z,21.72
2023-05-19T12:40:55.839Z,21.75
2023-05-19T12:41:55.820Z,21.66
2023-05-19T12:42:55.889Z,21.46
2023-05-19T12:43:55.818Z,21.44
2023-05-19T12:44:55.756Z,21.42
2023-05-19T12:45:55.809Z,21.54
2023-05-19T12:46:55.777Z,21.51
2023-05-19T12:47:55.793Z,21.48
2023-05-19T12:48:55.775Z,21.61
2023-05-19T12:49:55.737Z,21.66
2023-05-19T12:50:55.841Z,21.69
2023-05-19T12:51:55.754Z,21.71
2023-05-19T12:52:55.653Z,21.60
2023-05-19T12:53:55.696Z,21.71
2023-05-19T12:54:55.713Z,21.64
2023-05-19T12:55:55.646Z,21.83
2023-05-19T12:59:38.533Z,23.15
2023-05-19T12:59:43.197Z,26.58
2023-05-19T13:00:42.490Z,26.65
2023-05-19T13:01:42.188Z,26.86
2023-05-19T13:02:47.109Z,26.39
2023-05-19T13:03:42.214Z,25.89
2023-05-19T13:10:14.136Z,26.40
2023-05-19T13:10:31.979Z,28.22
2023-05-19T13:11:18.805Z,27.96
2023-05-19T13:12:24.376Z,28.19
2023-05-19T13:13:18.805Z,27.91